sensor_id;sensor_type;location;lat;lon;timestamp;P1;durP1;ratioP1;P2;durP2;ratioP2
71423;SDS011;59240;51.370;-0.486;2023-01-29T00:01:20;21.67;;;8.57;;
71423;SDS011;59240;51.370;-0.486;2023-01-29T00:04:29;22.55;;;9.02;;
71423;SDS011;59240;51.370;-0.486;2023-01-29T00:07:54;24.30;;;9.00;;
71423;SDS011;59240;51.370;-0.486;2023-01-29T00:11:04;21.80;;;9.27;;
71423;SDS011;59240;51.370;-0.486;2023-01-29T00:20:57;23.02;;;8.82;;
71423;SDS011;59240;51.370;-0.486;2023-01-29T00:23:34;21.08;;;8.65;;
71423;SDS011;59240;51.370;-0.486;2023-01-29T00:26:13;20.75;;;8.35;;
71423;SDS011;59240;51.370;-0.486;2023-01-29T00:28:55;27.37;;;8.83;;
71423;SDS011;59240;51.370;-0.486;2023-01-29T00:31:50;22.48;;;9.10;;
71423;SDS011;59240;51.370;-0.486;2023-01-29T00:34:36;26.10;;;9.60;;
71423;SDS011;59240;51.370;-0.486;2023-01-29T00:37:31;22.20;;;8.50;;
71423;SDS011;59240;51.370;-0.486;2023-01-29T00:40:06;23.00;;;8.23;;
71423;SDS011;59240;51.370;-0.486;2023-01-29T00:42:34;19.60;;;8.50;;
71423;SDS011;59240;51.370;-0.486;2023-01-29T00:45:30;20.67;;;8.27;;
71423;SDS011;59240;51.370;-0.486;2023-01-29T00:48:07;17.00;;;7.82;;
71423;SDS011;59240;51.370;-0.486;2023-01-29T00:50:49;21.63;;;8.68;;
71423;SDS011;59240;51.370;-0.486;2023-01-29T00:53:18;21.27;;;8.70;;
71423;SDS011;59240;51.370;-0.486;2023-01-29T00:55:48;24.27;;;8.63;;
71423;SDS011;59240;51.370;-0.486;2023-01-29T00:58:23;22.27;;;9.05;;
71423;SDS011;59240;51.370;-0.486;2023-01-29T01:01:11;23.80;;;8.90;;
71423;SDS011;59240;51.370;-0.486;2023-01-29T01:04:20;23.35;;;9.80;;
71423;SDS011;59240;51.370;-0.486;2023-01-29T01:06:52;26.98;;;8.57;;
71423;SDS011;59240;51.370;-0.486;2023-01-29T01:09:58;20.93;;;8.00;;
71423;SDS011;59240;51.370;-0.486;2023-01-29T01:12:44;21.10;;;7.95;;
71423;SDS011;59240;51.370;-0.486;2023-01-29T01:15:16;18.92;;;8.05;;
71423;SDS011;59240;51.370;-0.486;2023-01-29T01:17:45;19.73;;;8.38;;
71423;SDS011;59240;51.370;-0.486;2023-01-29T01:20:14;23.67;;;8.65;;
71423;SDS011;59240;51.370;-0.486;2023-01-29T01:22:56;21.80;;;9.70;;
71423;SDS011;59240;51.370;-0.486;2023-01-29T01:25:42;24.25;;;9.60;;
71423;SDS011;59240;51.370;-0.486;2023-01-29T01:28:13;19.55;;;8.85;;
71423;SDS011;59240;51.370;-0.486;2023-01-29T01:30:43;19.42;;;8.30;;
71423;SDS011;59240;51.370;-0.486;2023-01-29T01:33:15;24.08;;;9.13;;
71423;SDS011;59240;51.370;-0.486;2023-01-29T01:35:47;24.30;;;9.23;;
71423;SDS011;59240;51.370;-0.486;2023-01-29T01:38:19;20.02;;;8.50;;
71423;SDS011;59240;51.370;-0.486;2023-01-29T01:40:49;23.90;;;9.55;;
71423;SDS011;59240;51.370;-0.486;2023-01-29T01:43:17;20.83;;;8.77;;
71423;SDS011;59240;51.370;-0.486;2023-01-29T01:45:44;20.42;;;8.63;;
71423;SDS011;59240;51.370;-0.486;2023-01-29T01:48:25;21.97;;;8.07;;
71423;SDS011;59240;51.370;-0.486;2023-01-29T01:50:58;22.35;;;8.07;;
71423;SDS011;59240;51.370;-0.486;2023-01-29T01:53:56;20.25;;;8.63;;
71423;SDS011;59240;51.370;-0.486;2023-01-29T01:56:39;19.55;;;8.05;;
71423;SDS011;59240;51.370;-0.486;2023-01-29T01:59:17;21.30;;;7.80;;
71423;SDS011;59240;51.370;-0.486;2023-01-29T02:01:48;21.13;;;8.03;;
71423;SDS011;59240;51.370;-0.486;2023-01-29T02:04:22;19.83;;;8.10;;
71423;SDS011;59240;51.370;-0.486;2023-01-29T02:07:13;22.48;;;8.38;;
71423;SDS011;59240;51.370;-0.486;2023-01-29T02:10:04;19.50;;;8.02;;
71423;SDS011;59240;51.370;-0.486;2023-01-29T02:12:36;21.27;;;8.50;;
71423;SDS011;59240;51.370;-0.486;2023-01-29T02:15:05;20.63;;;8.03;;
71423;SDS011;59240;51.370;-0.486;2023-01-29T02:17:47;18.77;;;8.07;;
71423;SDS011;59240;51.370;-0.486;2023-01-29T02:20:31;22.17;;;9.07;;
71423;SDS011;59240;51.370;-0.486;2023-01-29T02:26:12;19.13;;;8.57;;
71423;SDS011;59240;51.370;-0.486;2023-01-29T02:31:54;20.10;;;8.73;;
71423;SDS011;59240;51.370;-0.486;2023-01-29T02:35:46;21.08;;;8.77;;
71423;SDS011;59240;51.370;-0.486;2023-01-29T02:45:12;20.60;;;7.80;;
71423;SDS011;59240;51.370;-0.486;2023-01-29T02:48:56;19.42;;;8.55;;
71423;SDS011;59240;51.370;-0.486;2023-01-29T02:51:23;19.83;;;8.32;;
71423;SDS011;59240;51.370;-0.486;2023-01-29T02:54:06;24.20;;;9.88;;
71423;SDS011;59240;51.370;-0.486;2023-01-29T02:57:41;19.27;;;8.80;;
71423;SDS011;59240;51.370;-0.486;2023-01-29T03:00:19;22.00;;;8.60;;
71423;SDS011;59240;51.370;-0.486;2023-01-29T03:03:07;22.70;;;8.90;;
71423;SDS011;59240;51.370;-0.486;2023-01-29T03:06:05;24.92;;;9.55;;
71423;SDS011;59240;51.370;-0.486;2023-01-29T03:08:47;24.00;;;9.23;;
71423;SDS011;59240;51.370;-0.486;2023-01-29T03:11:23;19.17;;;8.23;;
71423;SDS011;59240;51.370;-0.486;2023-01-29T03:17:54;21.38;;;8.50;;
71423;SDS011;59240;51.370;-0.486;2023-01-29T03:24:02;20.77;;;8.15;;
71423;SDS011;59240;51.370;-0.486;2023-01-29T03:27:54;22.05;;;8.07;;
71423;SDS011;59240;51.370;-0.486;2023-01-29T03:31:05;23.47;;;8.30;;
71423;SDS011;59240;51.370;-0.486;2023-01-29T03:34:23;21.05;;;8.65;;
71423;SDS011;59240;51.370;-0.486;2023-01-29T03:37:29;19.77;;;8.02;;
71423;SDS011;59240;51.370;-0.486;2023-01-29T03:46:51;19.90;;;7.97;;
71423;SDS011;59240;51.370;-0.486;2023-01-29T03:52:48;21.98;;;8.93;;
71423;SDS011;59240;51.370;-0.486;2023-01-29T03:58:56;22.70;;;9.35;;
71423;SDS011;59240;51.370;-0.486;2023-01-29T04:02:20;19.67;;;7.73;;
71423;SDS011;59240;51.370;-0.486;2023-01-29T04:04:57;19.00;;;7.90;;
71423;SDS011;59240;51.370;-0.486;2023-01-29T04:07:27;20.83;;;8.27;;
71423;SDS011;59240;51.370;-0.486;2023-01-29T04:10:03;22.33;;;8.68;;
71423;SDS011;59240;51.370;-0.486;2023-01-29T04:12:36;21.98;;;8.43;;
71423;SDS011;59240;51.370;-0.486;2023-01-29T04:15:08;22.80;;;8.63;;
71423;SDS011;59240;51.370;-0.486;2023-01-29T04:17:41;20.55;;;8.35;;
71423;SDS011;59240;51.370;-0.486;2023-01-29T04:20:18;20.08;;;8.55;;
71423;SDS011;59240;51.370;-0.486;2023-01-29T04:22:46;19.88;;;7.47;;
71423;SDS011;59240;51.370;-0.486;2023-01-29T04:25:15;21.45;;;8.82;;
71423;SDS011;59240;51.370;-0.486;2023-01-29T04:28:04;18.73;;;7.40;;
71423;SDS011;59240;51.370;-0.486;2023-01-29T04:44:25;21.02;;;8.18;;
71423;SDS011;59240;51.370;-0.486;2023-01-29T04:55:14;18.93;;;6.90;;
71423;SDS011;59240;51.370;-0.486;2023-01-29T04:57:53;16.58;;;6.68;;
71423;SDS011;59240;51.370;-0.486;2023-01-29T05:00:32;21.98;;;7.05;;
71423;SDS011;59240;51.370;-0.486;2023-01-29T05:03:03;20.02;;;7.38;;
71423;SDS011;59240;51.370;-0.486;2023-01-29T05:05:31;20.83;;;7.20;;
71423;SDS011;59240;51.370;-0.486;2023-01-29T05:07:58;18.30;;;7.00;;
71423;SDS011;59240;51.370;-0.486;2023-01-29T05:10:26;19.05;;;7.32;;
71423;SDS011;59240;51.370;-0.486;2023-01-29T05:12:57;19.27;;;6.93;;
71423;SDS011;59240;51.370;-0.486;2023-01-29T05:15:36;16.88;;;6.30;;
71423;SDS011;59240;51.370;-0.486;2023-01-29T05:18:06;16.33;;;6.70;;
71423;SDS011;59240;51.370;-0.486;2023-01-29T05:20:38;20.07;;;7.67;;
71423;SDS011;59240;51.370;-0.486;2023-01-29T05:23:14;18.75;;;6.90;;
71423;SDS011;59240;51.370;-0.486;2023-01-29T05:25:45;18.35;;;6.70;;
71423;SDS011;59240;51.370;-0.486;2023-01-29T05:28:13;18.95;;;6.88;;
71423;SDS011;59240;51.370;-0.486;2023-01-29T05:30:43;19.30;;;7.30;;
71423;SDS011;59240;51.370;-0.486;2023-01-29T05:33:17;18.13;;;6.67;;
71423;SDS011;59240;51.370;-0.486;2023-01-29T05:35:54;15.75;;;6.85;;
71423;SDS011;59240;51.370;-0.486;2023-01-29T05:38:23;18.98;;;6.40;;
71423;SDS011;59240;51.370;-0.486;2023-01-29T05:40:50;19.45;;;6.55;;
71423;SDS011;59240;51.370;-0.486;2023-01-29T05:43:18;19.75;;;7.25;;
71423;SDS011;59240;51.370;-0.486;2023-01-29T05:45:53;18.70;;;7.17;;
71423;SDS011;59240;51.370;-0.486;2023-01-29T05:48:22;18.85;;;6.97;;
71423;SDS011;59240;51.370;-0.486;2023-01-29T05:50:49;17.92;;;6.90;;
71423;SDS011;59240;51.370;-0.486;2023-01-29T05:53:18;17.35;;;6.57;;
71423;SDS011;59240;51.370;-0.486;2023-01-29T05:55:45;16.95;;;6.68;;
71423;SDS011;59240;51.370;-0.486;2023-01-29T05:58:15;17.30;;;6.33;;
71423;SDS011;59240;51.370;-0.486;2023-01-29T06:00:44;19.70;;;7.07;;
71423;SDS011;59240;51.370;-0.486;2023-01-29T06:03:11;18.33;;;6.68;;
71423;SDS011;59240;51.370;-0.486;2023-01-29T06:05:38;15.90;;;6.57;;
71423;SDS011;59240;51.370;-0.486;2023-01-29T06:08:05;16.45;;;6.22;;
71423;SDS011;59240;51.370;-0.486;2023-01-29T06:10:33;16.70;;;6.40;;
71423;SDS011;59240;51.370;-0.486;2023-01-29T06:13:00;15.20;;;6.07;;
71423;SDS011;59240;51.370;-0.486;2023-01-29T06:15:27;15.52;;;5.97;;
71423;SDS011;59240;51.370;-0.486;2023-01-29T06:17:53;20.63;;;6.40;;
71423;SDS011;59240;51.370;-0.486;2023-01-29T06:20:23;16.60;;;6.00;;
71423;SDS011;59240;51.370;-0.486;2023-01-29T06:22:50;13.90;;;5.37;;
71423;SDS011;59240;51.370;-0.486;2023-01-29T06:25:17;15.55;;;6.18;;
71423;SDS011;59240;51.370;-0.486;2023-01-29T06:27:43;16.38;;;6.43;;
71423;SDS011;59240;51.370;-0.486;2023-01-29T06:30:10;16.38;;;6.10;;
71423;SDS011;59240;51.370;-0.486;2023-01-29T06:32:41;15.13;;;5.95;;
71423;SDS011;59240;51.370;-0.486;2023-01-29T06:35:11;14.53;;;6.40;;
71423;SDS011;59240;51.370;-0.486;2023-01-29T06:37:40;16.27;;;5.93;;
71423;SDS011;59240;51.370;-0.486;2023-01-29T06:40:07;14.70;;;5.68;;
71423;SDS011;59240;51.370;-0.486;2023-01-29T06:42:34;15.20;;;5.57;;
71423;SDS011;59240;51.370;-0.486;2023-01-29T06:45:01;14.77;;;5.40;;
71423;SDS011;59240;51.370;-0.486;2023-01-29T06:47:28;14.33;;;4.97;;
71423;SDS011;59240;51.370;-0.486;2023-01-29T06:49:57;15.38;;;5.93;;
71423;SDS011;59240;51.370;-0.486;2023-01-29T06:52:30;14.18;;;5.05;;
71423;SDS011;59240;51.370;-0.486;2023-01-29T06:54:56;13.20;;;5.25;;
71423;SDS011;59240;51.370;-0.486;2023-01-29T06:57:27;12.65;;;4.38;;
71423;SDS011;59240;51.370;-0.486;2023-01-29T06:59:58;15.73;;;4.80;;
71423;SDS011;59240;51.370;-0.486;2023-01-29T07:02:25;13.55;;;4.40;;
71423;SDS011;59240;51.370;-0.486;2023-01-29T07:04:59;13.80;;;4.25;;
71423;SDS011;59240;51.370;-0.486;2023-01-29T07:07:29;14.60;;;4.82;;
71423;SDS011;59240;51.370;-0.486;2023-01-29T07:09:55;13.38;;;4.90;;
71423;SDS011;59240;51.370;-0.486;2023-01-29T07:12:22;13.43;;;4.90;;
71423;SDS011;59240;51.370;-0.486;2023-01-29T07:17:55;15.07;;;4.85;;
71423;SDS011;59240;51.370;-0.486;2023-01-29T07:20:33;14.57;;;5.10;;
71423;SDS011;59240;51.370;-0.486;2023-01-29T07:23:12;14.70;;;5.10;;
71423;SDS011;59240;51.370;-0.486;2023-01-29T07:25:45;13.83;;;4.80;;
71423;SDS011;59240;51.370;-0.486;2023-01-29T07:28:11;12.50;;;4.60;;
71423;SDS011;59240;51.370;-0.486;2023-01-29T07:31:00;17.05;;;5.55;;
71423;SDS011;59240;51.370;-0.486;2023-01-29T07:33:27;16.15;;;5.55;;
71423;SDS011;59240;51.370;-0.486;2023-01-29T07:36:00;15.63;;;5.80;;
71423;SDS011;59240;51.370;-0.486;2023-01-29T07:38:29;16.80;;;5.63;;
71423;SDS011;59240;51.370;-0.486;2023-01-29T07:41:03;16.65;;;5.18;;
71423;SDS011;59240;51.370;-0.486;2023-01-29T07:43:35;14.75;;;5.25;;
71423;SDS011;59240;51.370;-0.486;2023-01-29T07:46:10;16.23;;;5.85;;
71423;SDS011;59240;51.370;-0.486;2023-01-29T07:48:38;16.95;;;5.55;;
71423;SDS011;59240;51.370;-0.486;2023-01-29T07:51:05;13.10;;;4.97;;
71423;SDS011;59240;51.370;-0.486;2023-01-29T07:53:31;16.10;;;5.65;;
71423;SDS011;59240;51.370;-0.486;2023-01-29T07:56:00;15.63;;;5.63;;
71423;SDS011;59240;51.370;-0.486;2023-01-29T07:58:28;11.50;;;4.50;;
71423;SDS011;59240;51.370;-0.486;2023-01-29T08:00:54;22.10;;;6.55;;
71423;SDS011;59240;51.370;-0.486;2023-01-29T08:03:26;15.97;;;6.20;;
71423;SDS011;59240;51.370;-0.486;2023-01-29T08:06:04;18.45;;;5.88;;
71423;SDS011;59240;51.370;-0.486;2023-01-29T08:08:33;19.13;;;6.22;;
71423;SDS011;59240;51.370;-0.486;2023-01-29T08:11:03;16.15;;;5.97;;
71423;SDS011;59240;51.370;-0.486;2023-01-29T08:13:31;14.25;;;5.00;;
71423;SDS011;59240;51.370;-0.486;2023-01-29T08:15:59;12.50;;;4.47;;
71423;SDS011;59240;51.370;-0.486;2023-01-29T08:18:32;16.30;;;5.95;;
71423;SDS011;59240;51.370;-0.486;2023-01-29T08:20:59;17.17;;;5.75;;
71423;SDS011;59240;51.370;-0.486;2023-01-29T08:23:29;14.57;;;5.80;;
71423;SDS011;59240;51.370;-0.486;2023-01-29T08:25:56;18.70;;;6.07;;
71423;SDS011;59240;51.370;-0.486;2023-01-29T08:28:22;15.20;;;5.37;;
71423;SDS011;59240;51.370;-0.486;2023-01-29T08:30:56;17.55;;;5.45;;
71423;SDS011;59240;51.370;-0.486;2023-01-29T08:33:30;15.35;;;5.15;;
71423;SDS011;59240;51.370;-0.486;2023-01-29T08:36:04;18.38;;;5.43;;
71423;SDS011;59240;51.370;-0.486;2023-01-29T08:38:32;17.90;;;5.82;;
71423;SDS011;59240;51.370;-0.486;2023-01-29T08:40:58;16.53;;;4.57;;
71423;SDS011;59240;51.370;-0.486;2023-01-29T08:43:25;17.40;;;4.90;;
71423;SDS011;59240;51.370;-0.486;2023-01-29T08:45:54;14.35;;;4.80;;
71423;SDS011;59240;51.370;-0.486;2023-01-29T08:48:23;17.73;;;5.40;;
71423;SDS011;59240;51.370;-0.486;2023-01-29T08:50:50;14.55;;;4.35;;
71423;SDS011;59240;51.370;-0.486;2023-01-29T08:53:17;16.60;;;4.77;;
71423;SDS011;59240;51.370;-0.486;2023-01-29T08:55:53;12.57;;;3.80;;
71423;SDS011;59240;51.370;-0.486;2023-01-29T08:58:22;14.68;;;3.45;;
71423;SDS011;59240;51.370;-0.486;2023-01-29T09:01:16;15.68;;;4.43;;
71423;SDS011;59240;51.370;-0.486;2023-01-29T09:03:45;13.82;;;4.13;;
71423;SDS011;59240;51.370;-0.486;2023-01-29T09:06:12;14.57;;;4.47;;
71423;SDS011;59240;51.370;-0.486;2023-01-29T09:08:40;14.85;;;4.75;;
71423;SDS011;59240;51.370;-0.486;2023-01-29T09:11:07;12.88;;;4.28;;
71423;SDS011;59240;51.370;-0.486;2023-01-29T09:13:34;14.23;;;4.13;;
71423;SDS011;59240;51.370;-0.486;2023-01-29T09:16:02;10.80;;;3.40;;
71423;SDS011;59240;51.370;-0.486;2023-01-29T09:18:31;15.40;;;4.20;;
71423;SDS011;59240;51.370;-0.486;2023-01-29T09:20:58;13.48;;;4.55;;
71423;SDS011;59240;51.370;-0.486;2023-01-29T09:23:28;15.95;;;4.80;;
71423;SDS011;59240;51.370;-0.486;2023-01-29T09:25:56;15.90;;;4.93;;
71423;SDS011;59240;51.370;-0.486;2023-01-29T09:28:24;14.07;;;4.50;;
71423;SDS011;59240;51.370;-0.486;2023-01-29T09:31:01;16.37;;;4.90;;
71423;SDS011;59240;51.370;-0.486;2023-01-29T09:34:36;18.67;;;5.20;;
71423;SDS011;59240;51.370;-0.486;2023-01-29T09:37:53;14.77;;;4.82;;
71423;SDS011;59240;51.370;-0.486;2023-01-29T09:45:54;17.60;;;5.87;;
71423;SDS011;59240;51.370;-0.486;2023-01-29T09:48:54;14.43;;;4.40;;
71423;SDS011;59240;51.370;-0.486;2023-01-29T09:51:50;15.77;;;5.22;;
71423;SDS011;59240;51.370;-0.486;2023-01-29T09:57:14;17.05;;;5.03;;
71423;SDS011;59240;51.370;-0.486;2023-01-29T09:59:50;16.07;;;4.77;;
71423;SDS011;59240;51.370;-0.486;2023-01-29T10:05:37;8.30;;;2.95;;
71423;SDS011;59240;51.370;-0.486;2023-01-29T10:08:29;14.48;;;4.68;;
71423;SDS011;59240;51.370;-0.486;2023-01-29T10:11:25;15.63;;;4.70;;
71423;SDS011;59240;51.370;-0.486;2023-01-29T10:14:08;13.67;;;4.57;;
71423;SDS011;59240;51.370;-0.486;2023-01-29T10:19:53;20.15;;;6.63;;
71423;SDS011;59240;51.370;-0.486;2023-01-29T10:25:25;12.05;;;3.92;;
71423;SDS011;59240;51.370;-0.486;2023-01-29T10:27:58;16.03;;;4.80;;
71423;SDS011;59240;51.370;-0.486;2023-01-29T10:30:32;16.63;;;5.28;;
71423;SDS011;59240;51.370;-0.486;2023-01-29T10:39:18;13.65;;;4.72;;
71423;SDS011;59240;51.370;-0.486;2023-01-29T10:50:54;10.63;;;3.78;;
71423;SDS011;59240;51.370;-0.486;2023-01-29T10:56:31;12.80;;;3.77;;
71423;SDS011;59240;51.370;-0.486;2023-01-29T10:59:27;12.10;;;3.67;;
71423;SDS011;59240;51.370;-0.486;2023-01-29T11:02:07;10.98;;;3.70;;
71423;SDS011;59240;51.370;-0.486;2023-01-29T11:04:43;9.43;;;2.38;;
71423;SDS011;59240;51.370;-0.486;2023-01-29T11:07:13;9.25;;;3.10;;
71423;SDS011;59240;51.370;-0.486;2023-01-29T11:09:45;10.33;;;3.20;;
71423;SDS011;59240;51.370;-0.486;2023-01-29T11:12:37;12.65;;;4.10;;
71423;SDS011;59240;51.370;-0.486;2023-01-29T11:15:06;13.13;;;3.65;;
71423;SDS011;59240;51.370;-0.486;2023-01-29T11:20:32;11.23;;;3.40;;
71423;SDS011;59240;51.370;-0.486;2023-01-29T11:23:02;11.77;;;3.00;;
71423;SDS011;59240;51.370;-0.486;2023-01-29T11:25:29;9.65;;;3.10;;
71423;SDS011;59240;51.370;-0.486;2023-01-29T11:28:01;9.75;;;2.50;;
71423;SDS011;59240;51.370;-0.486;2023-01-29T11:30:32;9.68;;;3.10;;
71423;SDS011;59240;51.370;-0.486;2023-01-29T11:33:06;10.07;;;3.33;;
71423;SDS011;59240;51.370;-0.486;2023-01-29T11:35:34;11.80;;;3.53;;
71423;SDS011;59240;51.370;-0.486;2023-01-29T11:38:35;11.07;;;2.97;;
71423;SDS011;59240;51.370;-0.486;2023-01-29T11:41:14;9.23;;;2.88;;
71423;SDS011;59240;51.370;-0.486;2023-01-29T11:43:50;9.75;;;3.13;;
71423;SDS011;59240;51.370;-0.486;2023-01-29T11:46:16;10.20;;;3.42;;
71423;SDS011;59240;51.370;-0.486;2023-01-29T11:48:44;8.40;;;2.90;;
71423;SDS011;59240;51.370;-0.486;2023-01-29T11:51:36;8.40;;;2.72;;
71423;SDS011;59240;51.370;-0.486;2023-01-29T11:54:05;9.57;;;2.88;;
71423;SDS011;59240;51.370;-0.486;2023-01-29T11:56:41;8.10;;;2.15;;
71423;SDS011;59240;51.370;-0.486;2023-01-29T12:04:56;9.35;;;2.20;;
71423;SDS011;59240;51.370;-0.486;2023-01-29T12:07:29;8.95;;;2.95;;
71423;SDS011;59240;51.370;-0.486;2023-01-29T12:09:57;8.48;;;2.47;;
71423;SDS011;59240;51.370;-0.486;2023-01-29T12:15:04;7.77;;;2.37;;
71423;SDS011;59240;51.370;-0.486;2023-01-29T12:17:34;7.50;;;2.13;;
71423;SDS011;59240;51.370;-0.486;2023-01-29T12:20:14;9.40;;;2.60;;
71423;SDS011;59240;51.370;-0.486;2023-01-29T12:25:21;7.63;;;2.45;;
71423;SDS011;59240;51.370;-0.486;2023-01-29T12:28:03;8.83;;;2.70;;
71423;SDS011;59240;51.370;-0.486;2023-01-29T12:33:23;9.77;;;2.90;;
71423;SDS011;59240;51.370;-0.486;2023-01-29T12:36:12;8.75;;;2.35;;
71423;SDS011;59240;51.370;-0.486;2023-01-29T12:38:52;7.75;;;2.70;;
71423;SDS011;59240;51.370;-0.486;2023-01-29T12:47:18;8.32;;;2.60;;
71423;SDS011;59240;51.370;-0.486;2023-01-29T12:49:52;6.75;;;2.22;;
71423;SDS011;59240;51.370;-0.486;2023-01-29T12:57:59;10.70;;;2.33;;
71423;SDS011;59240;51.370;-0.486;2023-01-29T13:00:34;7.80;;;2.20;;
71423;SDS011;59240;51.370;-0.486;2023-01-29T13:05:50;8.25;;;2.90;;
71423;SDS011;59240;51.370;-0.486;2023-01-29T13:08:31;5.47;;;1.37;;
71423;SDS011;59240;51.370;-0.486;2023-01-29T13:11:11;6.72;;;2.03;;
71423;SDS011;59240;51.370;-0.486;2023-01-29T13:13:48;6.82;;;2.10;;
71423;SDS011;59240;51.370;-0.486;2023-01-29T13:16:30;8.10;;;2.22;;
71423;SDS011;59240;51.370;-0.486;2023-01-29T13:21:49;6.97;;;1.50;;
71423;SDS011;59240;51.370;-0.486;2023-01-29T13:24:20;7.25;;;1.30;;
71423;SDS011;59240;51.370;-0.486;2023-01-29T13:26:50;5.43;;;1.50;;
71423;SDS011;59240;51.370;-0.486;2023-01-29T13:29:27;6.47;;;1.38;;
71423;SDS011;59240;51.370;-0.486;2023-01-29T13:31:59;5.55;;;1.35;;
71423;SDS011;59240;51.370;-0.486;2023-01-29T13:34:30;6.37;;;0.93;;
71423;SDS011;59240;51.370;-0.486;2023-01-29T13:37:31;4.40;;;1.02;;
71423;SDS011;59240;51.370;-0.486;2023-01-29T13:40:02;5.15;;;1.17;;
71423;SDS011;59240;51.370;-0.486;2023-01-29T13:45:08;5.43;;;1.10;;
71423;SDS011;59240;51.370;-0.486;2023-01-29T13:47:49;4.50;;;0.90;;
71423;SDS011;59240;51.370;-0.486;2023-01-29T13:50:20;5.13;;;0.90;;
71423;SDS011;59240;51.370;-0.486;2023-01-29T13:53:02;4.25;;;1.05;;
71423;SDS011;59240;51.370;-0.486;2023-01-29T13:55:36;4.55;;;1.00;;
71423;SDS011;59240;51.370;-0.486;2023-01-29T14:00:48;4.43;;;0.93;;
71423;SDS011;59240;51.370;-0.486;2023-01-29T14:05:44;4.40;;;1.08;;
71423;SDS011;59240;51.370;-0.486;2023-01-29T14:13:45;5.17;;;1.10;;
71423;SDS011;59240;51.370;-0.486;2023-01-29T14:18:47;4.55;;;1.05;;
71423;SDS011;59240;51.370;-0.486;2023-01-29T14:21:22;4.47;;;0.90;;
71423;SDS011;59240;51.370;-0.486;2023-01-29T14:26:46;6.10;;;1.10;;
71423;SDS011;59240;51.370;-0.486;2023-01-29T14:29:16;4.47;;;0.90;;
71423;SDS011;59240;51.370;-0.486;2023-01-29T14:34:40;4.50;;;0.85;;
71423;SDS011;59240;51.370;-0.486;2023-01-29T14:37:17;2.92;;;0.60;;
71423;SDS011;59240;51.370;-0.486;2023-01-29T14:39:47;4.97;;;0.83;;
71423;SDS011;59240;51.370;-0.486;2023-01-29T14:47:50;3.20;;;0.60;;
71423;SDS011;59240;51.370;-0.486;2023-01-29T14:52:44;4.73;;;0.73;;
71423;SDS011;59240;51.370;-0.486;2023-01-29T14:55:36;4.40;;;0.73;;
71423;SDS011;59240;51.370;-0.486;2023-01-29T14:58:08;4.85;;;0.65;;
71423;SDS011;59240;51.370;-0.486;2023-01-29T15:00:40;4.97;;;0.80;;
71423;SDS011;59240;51.370;-0.486;2023-01-29T15:03:33;3.53;;;0.63;;
71423;SDS011;59240;51.370;-0.486;2023-01-29T15:06:05;3.10;;;0.50;;
71423;SDS011;59240;51.370;-0.486;2023-01-29T15:08:36;3.80;;;0.40;;
71423;SDS011;59240;51.370;-0.486;2023-01-29T15:19:48;3.83;;;0.70;;
71423;SDS011;59240;51.370;-0.486;2023-01-29T15:22:19;5.63;;;1.08;;
71423;SDS011;59240;51.370;-0.486;2023-01-29T15:25:00;4.28;;;1.10;;
71423;SDS011;59240;51.370;-0.486;2023-01-29T15:27:30;3.80;;;0.52;;
71423;SDS011;59240;51.370;-0.486;2023-01-29T15:29:58;6.93;;;0.75;;
71423;SDS011;59240;51.370;-0.486;2023-01-29T15:32:32;3.77;;;0.80;;
71423;SDS011;59240;51.370;-0.486;2023-01-29T15:35:04;6.00;;;1.25;;
71423;SDS011;59240;51.370;-0.486;2023-01-29T15:37:34;5.13;;;1.40;;
71423;SDS011;59240;51.370;-0.486;2023-01-29T15:40:02;4.15;;;0.98;;
71423;SDS011;59240;51.370;-0.486;2023-01-29T15:42:44;3.83;;;0.80;;
71423;SDS011;59240;51.370;-0.486;2023-01-29T15:45:24;3.90;;;0.70;;
71423;SDS011;59240;51.370;-0.486;2023-01-29T15:47:59;4.22;;;0.77;;
71423;SDS011;59240;51.370;-0.486;2023-01-29T15:50:31;4.75;;;0.80;;
71423;SDS011;59240;51.370;-0.486;2023-01-29T15:53:02;4.28;;;0.93;;
71423;SDS011;59240;51.370;-0.486;2023-01-29T15:55:33;4.45;;;0.90;;
71423;SDS011;59240;51.370;-0.486;2023-01-29T15:58:01;4.03;;;0.80;;
71423;SDS011;59240;51.370;-0.486;2023-01-29T16:00:28;4.75;;;1.05;;
71423;SDS011;59240;51.370;-0.486;2023-01-29T16:02:56;4.18;;;0.80;;
71423;SDS011;59240;51.370;-0.486;2023-01-29T16:05:27;4.55;;;0.82;;
71423;SDS011;59240;51.370;-0.486;2023-01-29T16:07:56;4.13;;;0.80;;
71423;SDS011;59240;51.370;-0.486;2023-01-29T16:10:23;5.07;;;1.13;;
71423;SDS011;59240;51.370;-0.486;2023-01-29T16:12:54;4.90;;;1.30;;
71423;SDS011;59240;51.370;-0.486;2023-01-29T16:15:30;6.93;;;1.30;;
71423;SDS011;59240;51.370;-0.486;2023-01-29T16:17:58;5.07;;;1.08;;
71423;SDS011;59240;51.370;-0.486;2023-01-29T16:20:35;4.40;;;1.10;;
71423;SDS011;59240;51.370;-0.486;2023-01-29T16:23:07;4.47;;;1.20;;
71423;SDS011;59240;51.370;-0.486;2023-01-29T16:25:42;6.03;;;1.38;;
71423;SDS011;59240;51.370;-0.486;2023-01-29T16:28:09;5.10;;;1.08;;
71423;SDS011;59240;51.370;-0.486;2023-01-29T16:30:36;5.60;;;1.27;;
71423;SDS011;59240;51.370;-0.486;2023-01-29T16:33:04;4.63;;;1.10;;
71423;SDS011;59240;51.370;-0.486;2023-01-29T16:35:33;4.83;;;1.10;;
71423;SDS011;59240;51.370;-0.486;2023-01-29T16:38:03;3.58;;;0.50;;
71423;SDS011;59240;51.370;-0.486;2023-01-29T16:40:39;5.20;;;1.02;;
71423;SDS011;59240;51.370;-0.486;2023-01-29T16:43:44;3.90;;;0.85;;
71423;SDS011;59240;51.370;-0.486;2023-01-29T16:46:19;4.43;;;1.10;;
71423;SDS011;59240;51.370;-0.486;2023-01-29T16:48:51;5.53;;;1.00;;
71423;SDS011;59240;51.370;-0.486;2023-01-29T16:54:00;5.18;;;1.17;;
71423;SDS011;59240;51.370;-0.486;2023-01-29T16:56:32;4.40;;;1.00;;
71423;SDS011;59240;51.370;-0.486;2023-01-29T16:59:01;3.72;;;0.90;;
71423;SDS011;59240;51.370;-0.486;2023-01-29T17:01:31;4.40;;;0.90;;
71423;SDS011;59240;51.370;-0.486;2023-01-29T17:06:35;4.35;;;0.80;;
71423;SDS011;59240;51.370;-0.486;2023-01-29T17:09:05;5.20;;;1.00;;
71423;SDS011;59240;51.370;-0.486;2023-01-29T17:11:37;5.47;;;1.17;;
71423;SDS011;59240;51.370;-0.486;2023-01-29T17:14:10;5.80;;;1.43;;
71423;SDS011;59240;51.370;-0.486;2023-01-29T17:16:48;5.45;;;1.60;;
71423;SDS011;59240;51.370;-0.486;2023-01-29T17:19:18;5.72;;;1.40;;
71423;SDS011;59240;51.370;-0.486;2023-01-29T17:21:46;6.68;;;1.75;;
71423;SDS011;59240;51.370;-0.486;2023-01-29T17:24:13;5.22;;;1.25;;
71423;SDS011;59240;51.370;-0.486;2023-01-29T17:26:39;4.73;;;1.30;;
71423;SDS011;59240;51.370;-0.486;2023-01-29T17:29:08;4.45;;;0.98;;
71423;SDS011;59240;51.370;-0.486;2023-01-29T17:31:41;4.95;;;1.02;;
71423;SDS011;59240;51.370;-0.486;2023-01-29T17:34:11;4.35;;;1.10;;
71423;SDS011;59240;51.370;-0.486;2023-01-29T17:36:40;5.38;;;1.30;;
71423;SDS011;59240;51.370;-0.486;2023-01-29T17:39:18;6.10;;;1.97;;
71423;SDS011;59240;51.370;-0.486;2023-01-29T17:41:48;5.10;;;1.30;;
71423;SDS011;59240;51.370;-0.486;2023-01-29T17:44:16;5.45;;;1.42;;
71423;SDS011;59240;51.370;-0.486;2023-01-29T17:46:43;6.82;;;2.17;;
71423;SDS011;59240;51.370;-0.486;2023-01-29T17:49:27;5.50;;;1.10;;
71423;SDS011;59240;51.370;-0.486;2023-01-29T17:51:55;4.03;;;1.00;;
71423;SDS011;59240;51.370;-0.486;2023-01-29T17:54:22;3.47;;;0.50;;
71423;SDS011;59240;51.370;-0.486;2023-01-29T17:56:51;5.00;;;0.75;;
71423;SDS011;59240;51.370;-0.486;2023-01-29T17:59:19;3.88;;;0.57;;
71423;SDS011;59240;51.370;-0.486;2023-01-29T18:01:48;4.22;;;0.50;;
71423;SDS011;59240;51.370;-0.486;2023-01-29T18:04:16;3.40;;;0.50;;
71423;SDS011;59240;51.370;-0.486;2023-01-29T18:06:45;2.25;;;0.35;;
71423;SDS011;59240;51.370;-0.486;2023-01-29T18:09:16;2.83;;;0.43;;
71423;SDS011;59240;51.370;-0.486;2023-01-29T18:11:48;4.47;;;0.80;;
71423;SDS011;59240;51.370;-0.486;2023-01-29T18:14:16;4.43;;;1.10;;